首页
METAR-TAF:

METAR-TAF

机场 :

朱利叶斯·尼雷尔国际机场

达累斯萨拉姆, 坦桑尼亚

纬度: 06-52S, 经度: 039-12E, 海拔: 55米

当前天气观测

该预报发布于1小时和36分钟前的12:00 UTC
风速5节,风向
温度 32°C
湿度 71%
气压 1011 hPa
能见度10公里或以上
散云层高于2100英尺
少量云层高于2300英尺, 积雨云.

METAR: HTDA 171200Z 09005KT 9999 SCT021 FEW023CB 32/26 Q1011 NOSIG

时间: 16:36 (13:36 UTC)

预报

该预报发布于2小时和36分钟前的11:00 UTC
预报有效从17日的 12点(UTC)到 18日的 18点(UTC)
风速10节,风向东南
能见度10公里或以上
多云层高于2000英尺
成为
从 17日的 16点(UTC)到 17日的 19点(UTC)
散云层高于1500英尺
从 点(UTC)
风速节,风向
成为
从 18日的 03点(UTC)到 18日的 09点(UTC)
风速5节,风向南转南东
短暂存在
从 18日的 05点(UTC)到 18日的 08点(UTC)
多云层高于1700英尺

TAF: HTDA 171100Z 1712/1818 13010KT 9999 BKN020 BECMG 1716/1719 SCT015 FM 172200 00000KT BECMG 1803/1809 15005KT TEMPO 1805/1808 RA BKN017

超过4000个机场的气象观测和天气预报(METAR&TAF报告)。

可查询的气象台以黄色和红色小点在地图上表示。

将鼠标移到小点上方,可查看气象台名称。

然后点击查看天气观测和预报。

如需切换地图:点击带黑十字的绿色按钮放大地图;点击带横线的绿色按钮缩小地图;或者点击绿色箭头查看邻近地区的地图。


METAR-TAF: